sensor_id;sensor_type;location;lat;lon;timestamp;P1;durP1;ratioP1;P2;durP2;ratioP2
41903;SDS011;27586;51.124;4.182;2023-07-28T00:01:24;4.20;;;3.00;;
41903;SDS011;27586;51.124;4.182;2023-07-28T00:03:50;3.75;;;3.35;;
41903;SDS011;27586;51.124;4.182;2023-07-28T00:06:16;3.60;;;3.30;;
41903;SDS011;27586;51.124;4.182;2023-07-28T00:08:42;3.67;;;3.13;;
41903;SDS011;27586;51.124;4.182;2023-07-28T00:11:11;3.88;;;3.58;;
41903;SDS011;27586;51.124;4.182;2023-07-28T00:13:38;5.07;;;3.30;;
41903;SDS011;27586;51.124;4.182;2023-07-28T00:16:05;6.90;;;3.30;;
41903;SDS011;27586;51.124;4.182;2023-07-28T00:18:31;5.22;;;3.13;;
41903;SDS011;27586;51.124;4.182;2023-07-28T00:20:57;5.97;;;3.83;;
41903;SDS011;27586;51.124;4.182;2023-07-28T00:23:22;6.43;;;3.92;;
41903;SDS011;27586;51.124;4.182;2023-07-28T00:25:48;3.65;;;3.35;;
41903;SDS011;27586;51.124;4.182;2023-07-28T00:28:13;4.15;;;3.75;;
41903;SDS011;27586;51.124;4.182;2023-07-28T00:30:39;5.22;;;3.80;;
41903;SDS011;27586;51.124;4.182;2023-07-28T00:33:05;5.53;;;4.20;;
41903;SDS011;27586;51.124;4.182;2023-07-28T00:35:30;4.50;;;3.95;;
41903;SDS011;27586;51.124;4.182;2023-07-28T00:37:56;5.22;;;4.35;;
41903;SDS011;27586;51.124;4.182;2023-07-28T00:40:22;4.88;;;4.47;;
41903;SDS011;27586;51.124;4.182;2023-07-28T00:42:48;6.20;;;4.45;;
41903;SDS011;27586;51.124;4.182;2023-07-28T00:45:14;6.28;;;4.63;;
41903;SDS011;27586;51.124;4.182;2023-07-28T00:47:39;5.13;;;4.63;;
41903;SDS011;27586;51.124;4.182;2023-07-28T00:50:06;5.93;;;5.00;;
41903;SDS011;27586;51.124;4.182;2023-07-28T00:52:34;5.57;;;4.60;;
41903;SDS011;27586;51.124;4.182;2023-07-28T00:55:00;5.15;;;4.75;;
41903;SDS011;27586;51.124;4.182;2023-07-28T00:57:26;7.38;;;4.85;;
41903;SDS011;27586;51.124;4.182;2023-07-28T00:59:52;6.43;;;5.20;;
41903;SDS011;27586;51.124;4.182;2023-07-28T01:02:18;5.45;;;4.68;;
41903;SDS011;27586;51.124;4.182;2023-07-28T01:04:45;6.28;;;5.00;;
41903;SDS011;27586;51.124;4.182;2023-07-28T01:07:14;6.53;;;5.47;;
41903;SDS011;27586;51.124;4.182;2023-07-28T01:10:06;5.60;;;4.70;;
41903;SDS011;27586;51.124;4.182;2023-07-28T01:12:33;8.88;;;5.32;;
41903;SDS011;27586;51.124;4.182;2023-07-28T01:14:59;5.72;;;5.03;;
41903;SDS011;27586;51.124;4.182;2023-07-28T01:17:24;5.72;;;4.90;;
41903;SDS011;27586;51.124;4.182;2023-07-28T01:19:51;5.47;;;4.97;;
41903;SDS011;27586;51.124;4.182;2023-07-28T01:28:12;7.10;;;5.07;;
41903;SDS011;27586;51.124;4.182;2023-07-28T01:30:38;6.07;;;4.95;;
41903;SDS011;27586;51.124;4.182;2023-07-28T01:33:07;5.53;;;4.88;;
41903;SDS011;27586;51.124;4.182;2023-07-28T01:35:34;5.88;;;5.22;;
41903;SDS011;27586;51.124;4.182;2023-07-28T01:38:06;7.47;;;4.75;;
41903;SDS011;27586;51.124;4.182;2023-07-28T01:40:31;6.30;;;5.18;;
41903;SDS011;27586;51.124;4.182;2023-07-28T01:42:57;6.53;;;4.82;;
41903;SDS011;27586;51.124;4.182;2023-07-28T01:45:23;6.50;;;4.70;;
41903;SDS011;27586;51.124;4.182;2023-07-28T01:47:49;6.70;;;4.78;;
41903;SDS011;27586;51.124;4.182;2023-07-28T01:50:14;10.48;;;4.85;;
41903;SDS011;27586;51.124;4.182;2023-07-28T01:52:40;5.68;;;5.00;;
41903;SDS011;27586;51.124;4.182;2023-07-28T01:55:06;5.25;;;4.78;;
41903;SDS011;27586;51.124;4.182;2023-07-28T01:57:34;7.63;;;5.15;;
41903;SDS011;27586;51.124;4.182;2023-07-28T02:00:03;6.10;;;5.50;;
41903;SDS011;27586;51.124;4.182;2023-07-28T02:02:30;6.15;;;5.00;;
41903;SDS011;27586;51.124;4.182;2023-07-28T02:04:56;5.88;;;4.57;;
41903;SDS011;27586;51.124;4.182;2023-07-28T02:07:22;6.55;;;5.13;;
41903;SDS011;27586;51.124;4.182;2023-07-28T02:09:47;5.35;;;4.85;;
41903;SDS011;27586;51.124;4.182;2023-07-28T02:12:13;5.97;;;5.30;;
41903;SDS011;27586;51.124;4.182;2023-07-28T02:14:39;5.85;;;4.90;;
41903;SDS011;27586;51.124;4.182;2023-07-28T02:17:04;6.40;;;4.97;;
41903;SDS011;27586;51.124;4.182;2023-07-28T02:19:30;4.93;;;4.53;;
41903;SDS011;27586;51.124;4.182;2023-07-28T02:21:56;6.43;;;4.95;;
41903;SDS011;27586;51.124;4.182;2023-07-28T02:24:22;5.93;;;4.60;;
41903;SDS011;27586;51.124;4.182;2023-07-28T02:26:47;6.57;;;4.13;;
41903;SDS011;27586;51.124;4.182;2023-07-28T02:29:13;6.00;;;4.30;;
41903;SDS011;27586;51.124;4.182;2023-07-28T02:31:39;4.72;;;3.90;;
41903;SDS011;27586;51.124;4.182;2023-07-28T02:34:04;4.63;;;4.22;;
41903;SDS011;27586;51.124;4.182;2023-07-28T02:36:30;7.40;;;4.55;;
41903;SDS011;27586;51.124;4.182;2023-07-28T02:38:56;4.85;;;4.15;;
41903;SDS011;27586;51.124;4.182;2023-07-28T02:41:22;5.05;;;3.92;;
41903;SDS011;27586;51.124;4.182;2023-07-28T02:43:47;6.45;;;4.45;;
41903;SDS011;27586;51.124;4.182;2023-07-28T02:46:13;6.90;;;4.10;;
41903;SDS011;27586;51.124;4.182;2023-07-28T02:48:39;5.05;;;4.28;;
41903;SDS011;27586;51.124;4.182;2023-07-28T02:51:04;4.72;;;4.15;;
41903;SDS011;27586;51.124;4.182;2023-07-28T02:53:30;8.02;;;3.97;;
41903;SDS011;27586;51.124;4.182;2023-07-28T02:55:56;4.75;;;4.22;;
41903;SDS011;27586;51.124;4.182;2023-07-28T02:58:21;5.55;;;4.45;;
41903;SDS011;27586;51.124;4.182;2023-07-28T03:00:47;5.13;;;4.32;;
41903;SDS011;27586;51.124;4.182;2023-07-28T03:03:13;4.65;;;3.80;;
41903;SDS011;27586;51.124;4.182;2023-07-28T03:05:39;4.13;;;3.78;;
41903;SDS011;27586;51.124;4.182;2023-07-28T03:08:05;5.55;;;3.58;;
41903;SDS011;27586;51.124;4.182;2023-07-28T03:10:31;6.43;;;3.78;;
41903;SDS011;27586;51.124;4.182;2023-07-28T03:12:58;4.32;;;3.30;;
41903;SDS011;27586;51.124;4.182;2023-07-28T03:15:23;3.88;;;3.50;;
41903;SDS011;27586;51.124;4.182;2023-07-28T03:17:49;3.85;;;3.20;;
41903;SDS011;27586;51.124;4.182;2023-07-28T03:20:16;5.95;;;3.38;;
41903;SDS011;27586;51.124;4.182;2023-07-28T03:22:42;6.28;;;3.50;;
41903;SDS011;27586;51.124;4.182;2023-07-28T03:25:08;4.93;;;2.85;;
41903;SDS011;27586;51.124;4.182;2023-07-28T03:27:34;4.53;;;3.15;;
41903;SDS011;27586;51.124;4.182;2023-07-28T03:30:00;5.97;;;3.38;;
41903;SDS011;27586;51.124;4.182;2023-07-28T03:32:25;6.00;;;3.10;;
41903;SDS011;27586;51.124;4.182;2023-07-28T03:34:51;6.35;;;3.30;;
41903;SDS011;27586;51.124;4.182;2023-07-28T03:37:17;3.95;;;3.10;;
41903;SDS011;27586;51.124;4.182;2023-07-28T03:39:42;5.78;;;3.00;;
41903;SDS011;27586;51.124;4.182;2023-07-28T03:42:08;4.45;;;2.80;;
41903;SDS011;27586;51.124;4.182;2023-07-28T03:44:34;4.78;;;2.97;;
41903;SDS011;27586;51.124;4.182;2023-07-28T03:47:02;5.00;;;3.13;;
41903;SDS011;27586;51.124;4.182;2023-07-28T03:49:29;3.22;;;2.90;;
41903;SDS011;27586;51.124;4.182;2023-07-28T03:51:54;3.30;;;2.85;;
41903;SDS011;27586;51.124;4.182;2023-07-28T03:54:20;4.07;;;2.75;;
41903;SDS011;27586;51.124;4.182;2023-07-28T03:56:46;2.53;;;2.33;;
41903;SDS011;27586;51.124;4.182;2023-07-28T03:59:12;3.28;;;2.50;;
41903;SDS011;27586;51.124;4.182;2023-07-28T04:01:37;3.10;;;2.63;;
41903;SDS011;27586;51.124;4.182;2023-07-28T04:04:03;3.40;;;2.80;;
41903;SDS011;27586;51.124;4.182;2023-07-28T04:09:24;3.78;;;2.80;;
41903;SDS011;27586;51.124;4.182;2023-07-28T04:11:49;5.72;;;2.67;;
41903;SDS011;27586;51.124;4.182;2023-07-28T04:14:15;2.85;;;2.53;;
41903;SDS011;27586;51.124;4.182;2023-07-28T04:16:41;3.03;;;2.80;;
41903;SDS011;27586;51.124;4.182;2023-07-28T04:19:06;3.70;;;2.67;;
41903;SDS011;27586;51.124;4.182;2023-07-28T04:21:32;2.95;;;2.75;;
41903;SDS011;27586;51.124;4.182;2023-07-28T04:23:58;4.07;;;2.63;;
41903;SDS011;27586;51.124;4.182;2023-07-28T04:26:24;3.40;;;2.47;;
41903;SDS011;27586;51.124;4.182;2023-07-28T04:28:50;4.35;;;2.90;;
41903;SDS011;27586;51.124;4.182;2023-07-28T04:31:16;4.28;;;2.80;;
41903;SDS011;27586;51.124;4.182;2023-07-28T04:33:41;3.33;;;3.03;;
41903;SDS011;27586;51.124;4.182;2023-07-28T04:36:07;4.18;;;3.10;;
41903;SDS011;27586;51.124;4.182;2023-07-28T04:38:33;5.45;;;2.75;;
41903;SDS011;27586;51.124;4.182;2023-07-28T04:40:59;3.95;;;3.10;;
41903;SDS011;27586;51.124;4.182;2023-07-28T04:43:25;3.60;;;2.78;;
41903;SDS011;27586;51.124;4.182;2023-07-28T04:45:50;3.03;;;2.83;;
41903;SDS011;27586;51.124;4.182;2023-07-28T04:48:16;3.22;;;2.92;;
41903;SDS011;27586;51.124;4.182;2023-07-28T04:50:42;3.22;;;2.92;;
41903;SDS011;27586;51.124;4.182;2023-07-28T04:53:07;3.17;;;2.95;;
41903;SDS011;27586;51.124;4.182;2023-07-28T04:55:33;5.70;;;3.03;;
41903;SDS011;27586;51.124;4.182;2023-07-28T04:57:59;3.90;;;3.30;;
41903;SDS011;27586;51.124;4.182;2023-07-28T05:00:24;3.55;;;2.75;;
41903;SDS011;27586;51.124;4.182;2023-07-28T05:02:50;3.83;;;3.08;;
41903;SDS011;27586;51.124;4.182;2023-07-28T05:05:16;3.03;;;2.83;;
41903;SDS011;27586;51.124;4.182;2023-07-28T05:07:41;5.20;;;2.83;;
41903;SDS011;27586;51.124;4.182;2023-07-28T05:10:07;3.65;;;2.75;;
41903;SDS011;27586;51.124;4.182;2023-07-28T05:12:33;4.28;;;2.90;;
41903;SDS011;27586;51.124;4.182;2023-07-28T05:14:59;2.75;;;2.55;;
41903;SDS011;27586;51.124;4.182;2023-07-28T05:17:24;4.00;;;2.80;;
41903;SDS011;27586;51.124;4.182;2023-07-28T05:19:50;6.40;;;2.95;;
41903;SDS011;27586;51.124;4.182;2023-07-28T05:22:16;5.85;;;2.88;;
41903;SDS011;27586;51.124;4.182;2023-07-28T05:24:42;4.82;;;3.10;;
41903;SDS011;27586;51.124;4.182;2023-07-28T05:27:09;2.92;;;2.72;;
41903;SDS011;27586;51.124;4.182;2023-07-28T05:29:35;3.08;;;2.88;;
41903;SDS011;27586;51.124;4.182;2023-07-28T05:32:01;3.70;;;3.03;;
41903;SDS011;27586;51.124;4.182;2023-07-28T05:34:26;5.57;;;3.00;;
41903;SDS011;27586;51.124;4.182;2023-07-28T05:36:52;3.95;;;2.97;;
41903;SDS011;27586;51.124;4.182;2023-07-28T05:39:18;3.17;;;2.92;;
41903;SDS011;27586;51.124;4.182;2023-07-28T05:41:43;3.30;;;3.00;;
41903;SDS011;27586;51.124;4.182;2023-07-28T05:44:09;4.22;;;3.40;;
41903;SDS011;27586;51.124;4.182;2023-07-28T05:46:35;4.75;;;3.20;;
41903;SDS011;27586;51.124;4.182;2023-07-28T05:49:00;3.38;;;3.08;;
41903;SDS011;27586;51.124;4.182;2023-07-28T05:51:26;5.00;;;3.15;;
41903;SDS011;27586;51.124;4.182;2023-07-28T05:53:52;4.75;;;2.92;;
41903;SDS011;27586;51.124;4.182;2023-07-28T05:56:18;3.33;;;3.03;;
41903;SDS011;27586;51.124;4.182;2023-07-28T05:58:44;3.42;;;2.92;;
41903;SDS011;27586;51.124;4.182;2023-07-28T06:01:11;4.65;;;2.65;;
41903;SDS011;27586;51.124;4.182;2023-07-28T06:03:36;3.10;;;2.72;;
41903;SDS011;27586;51.124;4.182;2023-07-28T06:06:02;3.75;;;2.70;;
41903;SDS011;27586;51.124;4.182;2023-07-28T06:08:28;2.72;;;2.40;;
41903;SDS011;27586;51.124;4.182;2023-07-28T06:10:53;4.63;;;2.90;;
41903;SDS011;27586;51.124;4.182;2023-07-28T06:13:19;2.65;;;2.45;;
41903;SDS011;27586;51.124;4.182;2023-07-28T06:15:46;4.22;;;2.20;;
41903;SDS011;27586;51.124;4.182;2023-07-28T06:18:12;2.88;;;2.28;;
41903;SDS011;27586;51.124;4.182;2023-07-28T06:20:41;2.78;;;2.28;;
41903;SDS011;27586;51.124;4.182;2023-07-28T06:23:08;2.95;;;2.60;;
41903;SDS011;27586;51.124;4.182;2023-07-28T06:25:33;4.07;;;2.33;;
41903;SDS011;27586;51.124;4.182;2023-07-28T06:27:59;2.33;;;2.08;;
41903;SDS011;27586;51.124;4.182;2023-07-28T06:30:25;2.42;;;2.22;;
41903;SDS011;27586;51.124;4.182;2023-07-28T06:32:51;2.20;;;2.08;;
41903;SDS011;27586;51.124;4.182;2023-07-28T06:35:16;2.33;;;2.20;;
41903;SDS011;27586;51.124;4.182;2023-07-28T06:37:42;2.58;;;2.38;;
41903;SDS011;27586;51.124;4.182;2023-07-28T06:40:08;4.05;;;2.60;;
41903;SDS011;27586;51.124;4.182;2023-07-28T06:42:35;5.22;;;2.50;;
41903;SDS011;27586;51.124;4.182;2023-07-28T06:45:01;3.42;;;2.63;;
41903;SDS011;27586;51.124;4.182;2023-07-28T06:47:30;3.58;;;2.55;;
41903;SDS011;27586;51.124;4.182;2023-07-28T06:49:56;3.67;;;2.72;;
41903;SDS011;27586;51.124;4.182;2023-07-28T06:52:21;4.30;;;2.40;;
41903;SDS011;27586;51.124;4.182;2023-07-28T06:54:47;3.80;;;2.30;;
41903;SDS011;27586;51.124;4.182;2023-07-28T06:57:14;3.63;;;2.47;;
41903;SDS011;27586;51.124;4.182;2023-07-28T06:59:41;2.65;;;2.30;;
41903;SDS011;27586;51.124;4.182;2023-07-28T07:02:07;2.20;;;2.10;;
41903;SDS011;27586;51.124;4.182;2023-07-28T07:04:34;3.28;;;2.10;;
41903;SDS011;27586;51.124;4.182;2023-07-28T07:06:59;2.10;;;1.90;;
41903;SDS011;27586;51.124;4.182;2023-07-28T07:09:25;2.00;;;1.90;;
41903;SDS011;27586;51.124;4.182;2023-07-28T07:11:51;1.88;;;1.77;;
41903;SDS011;27586;51.124;4.182;2023-07-28T07:14:16;3.88;;;1.98;;
41903;SDS011;27586;51.124;4.182;2023-07-28T07:16:42;2.35;;;1.58;;
41903;SDS011;27586;51.124;4.182;2023-07-28T07:19:08;2.35;;;1.85;;
41903;SDS011;27586;51.124;4.182;2023-07-28T07:21:36;2.00;;;1.55;;
41903;SDS011;27586;51.124;4.182;2023-07-28T07:24:03;1.60;;;1.50;;
41903;SDS011;27586;51.124;4.182;2023-07-28T07:26:29;1.67;;;1.50;;
41903;SDS011;27586;51.124;4.182;2023-07-28T07:28:56;1.33;;;1.23;;
41903;SDS011;27586;51.124;4.182;2023-07-28T07:31:22;3.25;;;1.52;;
41903;SDS011;27586;51.124;4.182;2023-07-28T07:33:48;2.90;;;1.75;;
41903;SDS011;27586;51.124;4.182;2023-07-28T07:36:17;2.35;;;1.85;;
41903;SDS011;27586;51.124;4.182;2023-07-28T07:38:44;2.92;;;1.92;;
41903;SDS011;27586;51.124;4.182;2023-07-28T07:41:11;3.30;;;2.10;;
41903;SDS011;27586;51.124;4.182;2023-07-28T07:43:38;2.83;;;2.22;;
41903;SDS011;27586;51.124;4.182;2023-07-28T07:46:04;3.28;;;2.30;;
41903;SDS011;27586;51.124;4.182;2023-07-28T07:48:29;3.03;;;2.28;;
41903;SDS011;27586;51.124;4.182;2023-07-28T07:50:55;3.17;;;2.45;;
41903;SDS011;27586;51.124;4.182;2023-07-28T07:53:21;2.72;;;2.35;;
41903;SDS011;27586;51.124;4.182;2023-07-28T07:55:47;4.53;;;2.50;;
41903;SDS011;27586;51.124;4.182;2023-07-28T07:58:14;3.25;;;2.75;;
41903;SDS011;27586;51.124;4.182;2023-07-28T08:00:40;3.88;;;2.60;;
41903;SDS011;27586;51.124;4.182;2023-07-28T08:03:05;3.15;;;2.55;;
41903;SDS011;27586;51.124;4.182;2023-07-28T08:05:31;3.47;;;2.30;;
41903;SDS011;27586;51.124;4.182;2023-07-28T08:07:57;4.22;;;2.53;;
41903;SDS011;27586;51.124;4.182;2023-07-28T08:10:22;4.00;;;2.55;;
41903;SDS011;27586;51.124;4.182;2023-07-28T08:12:48;3.03;;;2.40;;
41903;SDS011;27586;51.124;4.182;2023-07-28T08:15:14;2.75;;;2.08;;
41903;SDS011;27586;51.124;4.182;2023-07-28T08:17:40;3.00;;;2.15;;
41903;SDS011;27586;51.124;4.182;2023-07-28T08:20:06;3.47;;;2.33;;
41903;SDS011;27586;51.124;4.182;2023-07-28T08:22:32;2.65;;;2.03;;
41903;SDS011;27586;51.124;4.182;2023-07-28T08:24:58;3.97;;;2.30;;
41903;SDS011;27586;51.124;4.182;2023-07-28T08:27:24;2.97;;;2.20;;
41903;SDS011;27586;51.124;4.182;2023-07-28T08:29:49;6.25;;;2.53;;
41903;SDS011;27586;51.124;4.182;2023-07-28T08:32:15;2.58;;;1.83;;
41903;SDS011;27586;51.124;4.182;2023-07-28T08:34:41;3.42;;;2.05;;
41903;SDS011;27586;51.124;4.182;2023-07-28T08:37:06;3.10;;;2.05;;
41903;SDS011;27586;51.124;4.182;2023-07-28T08:39:33;2.50;;;1.95;;
41903;SDS011;27586;51.124;4.182;2023-07-28T08:41:59;3.42;;;2.30;;
41903;SDS011;27586;51.124;4.182;2023-07-28T08:44:26;2.10;;;1.90;;
41903;SDS011;27586;51.124;4.182;2023-07-28T08:47:02;4.32;;;2.40;;
41903;SDS011;27586;51.124;4.182;2023-07-28T08:49:31;4.90;;;2.45;;
41903;SDS011;27586;51.124;4.182;2023-07-28T08:52:00;3.45;;;2.10;;
41903;SDS011;27586;51.124;4.182;2023-07-28T08:54:26;2.63;;;2.42;;
41903;SDS011;27586;51.124;4.182;2023-07-28T08:56:52;4.57;;;2.40;;
41903;SDS011;27586;51.124;4.182;2023-07-28T08:59:21;3.25;;;2.88;;
41903;SDS011;27586;51.124;4.182;2023-07-28T09:01:51;2.88;;;2.45;;
41903;SDS011;27586;51.124;4.182;2023-07-28T09:04:18;2.83;;;2.53;;
41903;SDS011;27586;51.124;4.182;2023-07-28T09:06:45;3.90;;;2.25;;
41903;SDS011;27586;51.124;4.182;2023-07-28T09:09:11;3.55;;;2.33;;
41903;SDS011;27586;51.124;4.182;2023-07-28T09:11:45;2.67;;;1.90;;
41903;SDS011;27586;51.124;4.182;2023-07-28T09:14:18;3.55;;;2.20;;
41903;SDS011;27586;51.124;4.182;2023-07-28T09:16:45;3.25;;;2.20;;
41903;SDS011;27586;51.124;4.182;2023-07-28T09:19:11;3.13;;;2.17;;
41903;SDS011;27586;51.124;4.182;2023-07-28T09:21:39;2.72;;;2.08;;
41903;SDS011;27586;51.124;4.182;2023-07-28T09:24:06;4.00;;;1.90;;
41903;SDS011;27586;51.124;4.182;2023-07-28T09:29:17;1.98;;;1.70;;
41903;SDS011;27586;51.124;4.182;2023-07-28T09:31:44;2.33;;;1.80;;
41903;SDS011;27586;51.124;4.182;2023-07-28T09:34:12;2.65;;;1.90;;
41903;SDS011;27586;51.124;4.182;2023-07-28T09:36:39;2.33;;;1.70;;
41903;SDS011;27586;51.124;4.182;2023-07-28T09:39:05;3.17;;;2.15;;
41903;SDS011;27586;51.124;4.182;2023-07-28T09:41:37;2.38;;;1.77;;
41903;SDS011;27586;51.124;4.182;2023-07-28T09:44:03;2.42;;;1.52;;
41903;SDS011;27586;51.124;4.182;2023-07-28T09:46:32;2.50;;;1.80;;
41903;SDS011;27586;51.124;4.182;2023-07-28T09:49:01;3.15;;;1.55;;
41903;SDS011;27586;51.124;4.182;2023-07-28T09:51:30;2.55;;;1.67;;
41903;SDS011;27586;51.124;4.182;2023-07-28T09:54:07;2.42;;;1.55;;
41903;SDS011;27586;51.124;4.182;2023-07-28T09:56:37;2.65;;;1.83;;
41903;SDS011;27586;51.124;4.182;2023-07-28T09:59:05;2.67;;;1.98;;
41903;SDS011;27586;51.124;4.182;2023-07-28T10:01:36;4.03;;;1.92;;
41903;SDS011;27586;51.124;4.182;2023-07-28T10:04:03;2.50;;;1.90;;
41903;SDS011;27586;51.124;4.182;2023-07-28T10:06:29;4.97;;;2.10;;
41903;SDS011;27586;51.124;4.182;2023-07-28T10:08:58;3.63;;;1.80;;
41903;SDS011;27586;51.124;4.182;2023-07-28T10:11:24;2.35;;;2.15;;
41903;SDS011;27586;51.124;4.182;2023-07-28T10:13:53;2.30;;;2.10;;
41903;SDS011;27586;51.124;4.182;2023-07-28T10:16:19;3.00;;;2.17;;
41903;SDS011;27586;51.124;4.182;2023-07-28T10:18:54;2.65;;;2.28;;
41903;SDS011;27586;51.124;4.182;2023-07-28T10:21:20;2.95;;;2.35;;
41903;SDS011;27586;51.124;4.182;2023-07-28T10:23:47;3.72;;;2.65;;
41903;SDS011;27586;51.124;4.182;2023-07-28T10:26:35;3.35;;;2.70;;
41903;SDS011;27586;51.124;4.182;2023-07-28T10:29:09;4.68;;;2.88;;
41903;SDS011;27586;51.124;4.182;2023-07-28T10:31:35;3.30;;;2.72;;
41903;SDS011;27586;51.124;4.182;2023-07-28T10:34:01;2.85;;;2.47;;
41903;SDS011;27586;51.124;4.182;2023-07-28T10:39:00;5.60;;;3.03;;
41903;SDS011;27586;51.124;4.182;2023-07-28T10:41:29;2.97;;;2.40;;
41903;SDS011;27586;51.124;4.182;2023-07-28T10:43:58;4.60;;;2.65;;
41903;SDS011;27586;51.124;4.182;2023-07-28T10:46:25;2.60;;;2.40;;
41903;SDS011;27586;51.124;4.182;2023-07-28T10:48:51;2.30;;;2.10;;
41903;SDS011;27586;51.124;4.182;2023-07-28T10:51:24;3.05;;;2.00;;
41903;SDS011;27586;51.124;4.182;2023-07-28T10:53:57;2.15;;;1.95;;
41903;SDS011;27586;51.124;4.182;2023-07-28T10:56:24;3.53;;;2.17;;
41903;SDS011;27586;51.124;4.182;2023-07-28T10:58:57;1.90;;;1.80;;
41903;SDS011;27586;51.124;4.182;2023-07-28T11:01:29;3.30;;;1.63;;
41903;SDS011;27586;51.124;4.182;2023-07-28T11:06:34;2.92;;;1.35;;
41903;SDS011;27586;51.124;4.182;2023-07-28T11:08:59;1.92;;;1.35;;
41903;SDS011;27586;51.124;4.182;2023-07-28T11:11:25;2.22;;;1.33;;
41903;SDS011;27586;51.124;4.182;2023-07-28T11:13:51;2.13;;;1.20;;
41903;SDS011;27586;51.124;4.182;2023-07-28T11:16:17;2.67;;;1.40;;
41903;SDS011;27586;51.124;4.182;2023-07-28T11:18:44;2.70;;;1.20;;
41903;SDS011;27586;51.124;4.182;2023-07-28T11:21:09;1.60;;;1.20;;
41903;SDS011;27586;51.124;4.182;2023-07-28T11:23:36;1.17;;;1.00;;
41903;SDS011;27586;51.124;4.182;2023-07-28T11:26:02;3.55;;;1.20;;
41903;SDS011;27586;51.124;4.182;2023-07-28T11:28:30;1.40;;;1.30;;
41903;SDS011;27586;51.124;4.182;2023-07-28T11:30:57;1.65;;;1.33;;
41903;SDS011;27586;51.124;4.182;2023-07-28T11:33:24;2.38;;;1.10;;
41903;SDS011;27586;51.124;4.182;2023-07-28T11:35:50;5.00;;;1.48;;
41903;SDS011;27586;51.124;4.182;2023-07-28T11:38:15;1.42;;;1.10;;
41903;SDS011;27586;51.124;4.182;2023-07-28T11:40:41;1.58;;;1.27;;
41903;SDS011;27586;51.124;4.182;2023-07-28T11:43:08;2.70;;;1.10;;
41903;SDS011;27586;51.124;4.182;2023-07-28T11:45:34;1.10;;;1.00;;
41903;SDS011;27586;51.124;4.182;2023-07-28T11:48:08;4.57;;;1.00;;
41903;SDS011;27586;51.124;4.182;2023-07-28T11:50:38;1.55;;;0.98;;
41903;SDS011;27586;51.124;4.182;2023-07-28T11:53:05;2.30;;;1.48;;
41903;SDS011;27586;51.124;4.182;2023-07-28T11:55:33;1.27;;;1.10;;
41903;SDS011;27586;51.124;4.182;2023-07-28T11:58:02;5.35;;;1.45;;
41903;SDS011;27586;51.124;4.182;2023-07-28T12:00:33;3.88;;;1.30;;
41903;SDS011;27586;51.124;4.182;2023-07-28T12:03:00;0.95;;;0.85;;
41903;SDS011;27586;51.124;4.182;2023-07-28T12:05:34;1.75;;;1.00;;
41903;SDS011;27586;51.124;4.182;2023-07-28T12:08:01;1.83;;;0.85;;
41903;SDS011;27586;51.124;4.182;2023-07-28T12:10:30;2.55;;;1.13;;
41903;SDS011;27586;51.124;4.182;2023-07-28T12:12:57;2.47;;;1.30;;
41903;SDS011;27586;51.124;4.182;2023-07-28T12:15:28;2.92;;;1.10;;
41903;SDS011;27586;51.124;4.182;2023-07-28T12:20:41;4.18;;;1.02;;
41903;SDS011;27586;51.124;4.182;2023-07-28T12:23:11;2.08;;;1.45;;
41903;SDS011;27586;51.124;4.182;2023-07-28T12:25:38;3.03;;;1.40;;
41903;SDS011;27586;51.124;4.182;2023-07-28T12:28:04;1.52;;;1.30;;
41903;SDS011;27586;51.124;4.182;2023-07-28T12:30:31;2.55;;;1.30;;
41903;SDS011;27586;51.124;4.182;2023-07-28T12:32:57;3.38;;;1.40;;
41903;SDS011;27586;51.124;4.182;2023-07-28T12:35:23;2.55;;;1.20;;
41903;SDS011;27586;51.124;4.182;2023-07-28T12:37:50;4.43;;;1.20;;
41903;SDS011;27586;51.124;4.182;2023-07-28T12:40:17;2.28;;;1.40;;
41903;SDS011;27586;51.124;4.182;2023-07-28T12:42:44;2.92;;;1.30;;
41903;SDS011;27586;51.124;4.182;2023-07-28T12:45:11;1.50;;;1.30;;
41903;SDS011;27586;51.124;4.182;2023-07-28T12:47:37;2.35;;;1.02;;
41903;SDS011;27586;51.124;4.182;2023-07-28T12:50:03;1.90;;;1.20;;
41903;SDS011;27586;51.124;4.182;2023-07-28T12:52:31;2.25;;;1.20;;
41903;SDS011;27586;51.124;4.182;2023-07-28T12:54:57;3.22;;;1.33;;
41903;SDS011;27586;51.124;4.182;2023-07-28T12:57:23;4.63;;;1.30;;
41903;SDS011;27586;51.124;4.182;2023-07-28T12:59:49;4.45;;;1.50;;
41903;SDS011;27586;51.124;4.182;2023-07-28T13:02:15;4.78;;;1.27;;
41903;SDS011;27586;51.124;4.182;2023-07-28T13:04:40;2.00;;;1.30;;
41903;SDS011;27586;51.124;4.182;2023-07-28T13:07:06;2.17;;;1.58;;
41903;SDS011;27586;51.124;4.182;2023-07-28T13:09:32;1.55;;;1.20;;
41903;SDS011;27586;51.124;4.182;2023-07-28T13:11:57;2.67;;;1.20;;
41903;SDS011;27586;51.124;4.182;2023-07-28T13:14:23;1.70;;;1.17;;
41903;SDS011;27586;51.124;4.182;2023-07-28T13:16:49;2.92;;;1.25;;
41903;SDS011;27586;51.124;4.182;2023-07-28T13:19:15;1.45;;;0.90;;
41903;SDS011;27586;51.124;4.182;2023-07-28T13:21:41;1.92;;;1.02;;
41903;SDS011;27586;51.124;4.182;2023-07-28T13:24:07;1.88;;;1.00;;
41903;SDS011;27586;51.124;4.182;2023-07-28T13:26:32;1.13;;;0.77;;
41903;SDS011;27586;51.124;4.182;2023-07-28T13:28:58;2.53;;;1.00;;
41903;SDS011;27586;51.124;4.182;2023-07-28T13:31:26;2.85;;;1.10;;
41903;SDS011;27586;51.124;4.182;2023-07-28T13:33:52;1.58;;;1.00;;
41903;SDS011;27586;51.124;4.182;2023-07-28T13:36:18;3.00;;;1.10;;
41903;SDS011;27586;51.124;4.182;2023-07-28T13:38:43;1.20;;;0.80;;
41903;SDS011;27586;51.124;4.182;2023-07-28T13:41:09;2.70;;;1.10;;
41903;SDS011;27586;51.124;4.182;2023-07-28T13:43:35;3.60;;;1.05;;
41903;SDS011;27586;51.124;4.182;2023-07-28T13:46:03;2.55;;;1.40;;
41903;SDS011;27586;51.124;4.182;2023-07-28T13:48:29;1.20;;;1.10;;
41903;SDS011;27586;51.124;4.182;2023-07-28T13:50:56;1.52;;;0.90;;
41903;SDS011;27586;51.124;4.182;2023-07-28T13:53:22;2.88;;;1.08;;
41903;SDS011;27586;51.124;4.182;2023-07-28T13:55:48;2.13;;;1.13;;
41903;SDS011;27586;51.124;4.182;2023-07-28T13:58:14;1.35;;;1.00;;
41903;SDS011;27586;51.124;4.182;2023-07-28T14:00:40;1.77;;;1.00;;
41903;SDS011;27586;51.124;4.182;2023-07-28T14:03:05;1.10;;;1.00;;
41903;SDS011;27586;51.124;4.182;2023-07-28T14:05:31;3.05;;;1.20;;
41903;SDS011;27586;51.124;4.182;2023-07-28T14:07:57;1.98;;;1.00;;
41903;SDS011;27586;51.124;4.182;2023-07-28T14:10:22;3.38;;;1.10;;
41903;SDS011;27586;51.124;4.182;2023-07-28T14:12:49;1.30;;;1.08;;
41903;SDS011;27586;51.124;4.182;2023-07-28T14:15:14;1.92;;;1.20;;
41903;SDS011;27586;51.124;4.182;2023-07-28T14:17:40;1.73;;;1.15;;
41903;SDS011;27586;51.124;4.182;2023-07-28T14:20:06;1.42;;;1.10;;
41903;SDS011;27586;51.124;4.182;2023-07-28T14:22:33;1.35;;;1.10;;
41903;SDS011;27586;51.124;4.182;2023-07-28T14:24:59;1.00;;;0.95;;
41903;SDS011;27586;51.124;4.182;2023-07-28T14:27:24;2.22;;;1.20;;
41903;SDS011;27586;51.124;4.182;2023-07-28T14:29:50;2.83;;;1.20;;
41903;SDS011;27586;51.124;4.182;2023-07-28T14:32:16;3.95;;;1.13;;
41903;SDS011;27586;51.124;4.182;2023-07-28T14:34:41;3.00;;;1.23;;
41903;SDS011;27586;51.124;4.182;2023-07-28T14:37:07;1.75;;;1.10;;
41903;SDS011;27586;51.124;4.182;2023-07-28T14:39:33;2.80;;;1.23;;
41903;SDS011;27586;51.124;4.182;2023-07-28T14:41:59;2.17;;;1.15;;
41903;SDS011;27586;51.124;4.182;2023-07-28T14:44:25;1.95;;;1.30;;
41903;SDS011;27586;51.124;4.182;2023-07-28T14:46:51;3.42;;;1.30;;
41903;SDS011;27586;51.124;4.182;2023-07-28T14:49:16;2.05;;;1.20;;
41903;SDS011;27586;51.124;4.182;2023-07-28T14:51:42;1.75;;;1.20;;
41903;SDS011;27586;51.124;4.182;2023-07-28T14:54:08;2.40;;;1.10;;
41903;SDS011;27586;51.124;4.182;2023-07-28T14:56:33;1.75;;;1.40;;
41903;SDS011;27586;51.124;4.182;2023-07-28T14:58:59;1.30;;;1.20;;
41903;SDS011;27586;51.124;4.182;2023-07-28T15:01:28;2.13;;;1.23;;
41903;SDS011;27586;51.124;4.182;2023-07-28T15:03:54;2.58;;;1.40;;